createdAt,value
2019-01-14T00:00:37.712Z,97536.53
2019-01-14T00:03:09.811Z,97539.56
2019-01-14T00:05:39.244Z,97528.16
2019-01-14T00:08:08.694Z,97537.06
2019-01-14T00:10:38.127Z,97546.81
2019-01-14T00:13:07.844Z,97532.05
2019-01-14T00:15:37.309Z,97531.80
2019-01-14T00:18:06.931Z,97531.40
2019-01-14T00:20:36.382Z,97548.19
2019-01-14T00:23:05.907Z,97543.12
2019-01-14T00:25:35.828Z,97544.16
2019-01-14T00:28:05.374Z,97541.02
2019-01-14T00:30:35.165Z,97539.87
2019-01-14T00:33:04.977Z,97530.13
2019-01-14T00:35:34.682Z,97543.55
2019-01-14T00:38:04.259Z,97527.70
2019-01-14T00:40:34.000Z,97522.06
2019-01-14T00:43:04.120Z,97537.16
2019-01-14T00:45:33.553Z,97543.02
2019-01-14T00:48:03.006Z,97540.06
2019-01-14T00:50:32.450Z,97532.09
2019-01-14T00:53:01.896Z,97525.03
2019-01-14T00:55:31.653Z,97568.57
2019-01-14T00:58:01.106Z,97565.59
2019-01-14T01:00:30.553Z,97583.30
2019-01-14T01:03:00.129Z,97583.39
2019-01-14T01:05:29.658Z,97587.30
2019-01-14T01:07:59.585Z,97590.80
2019-01-14T01:10:29.856Z,97606.11
2019-01-14T01:12:59.310Z,97602.03
2019-01-14T01:15:28.743Z,97610.70
2019-01-14T01:17:58.194Z,97628.31
2019-01-14T01:20:28.948Z,97619.02
2019-01-14T01:22:58.396Z,97645.43
2019-01-14T01:25:27.854Z,97638.25
2019-01-14T01:27:57.289Z,97650.87
2019-01-14T01:30:26.723Z,97651.58
2019-01-14T01:32:56.423Z,97661.66
2019-01-14T01:35:25.858Z,97654.89
2019-01-14T01:37:55.311Z,97657.38
2019-01-14T01:40:24.754Z,97662.20
2019-01-14T01:42:54.209Z,97662.75
2019-01-14T01:45:23.649Z,97678.35
2019-01-14T01:47:53.371Z,97675.09
2019-01-14T01:50:22.829Z,97679.67
2019-01-14T01:52:52.274Z,97674.11
2019-01-14T01:55:21.726Z,97695.47
2019-01-14T01:57:51.174Z,97699.33
2019-01-14T02:00:21.034Z,97717.50
2019-01-14T02:02:50.953Z,97719.48
2019-01-14T02:05:21.694Z,97726.25
2019-01-14T02:07:52.767Z,97727.20
2019-01-14T02:10:22.273Z,97730.73
2019-01-14T02:12:51.838Z,97740.59
2019-01-14T02:15:21.801Z,97754.23
2019-01-14T02:17:51.768Z,97752.77
2019-01-14T02:20:21.271Z,97759.69
2019-01-14T02:22:50.783Z,97773.38
2019-01-14T02:25:20.589Z,97784.00
2019-01-14T02:27:50.056Z,97789.62
2019-01-14T02:30:20.729Z,97806.31
2019-01-14T02:32:50.446Z,97788.03
2019-01-14T02:35:19.878Z,97807.88
2019-01-14T02:37:49.341Z,97820.65
2019-01-14T02:40:20.414Z,97822.23
2019-01-14T02:42:49.972Z,97827.70
2019-01-14T02:45:19.401Z,97828.48
2019-01-14T02:47:48.860Z,97843.30
2019-01-14T02:50:18.308Z,97843.64
2019-01-14T02:52:47.748Z,97841.25
2019-01-14T02:55:17.449Z,97851.37
2019-01-14T02:57:46.888Z,97860.27
2019-01-14T03:00:19.734Z,97865.52
2019-01-14T03:02:49.176Z,97870.38
2019-01-14T03:05:18.700Z,97868.03
2019-01-14T03:07:48.139Z,97878.44
2019-01-14T03:10:18.027Z,97877.11
2019-01-14T03:12:47.745Z,97904.22
2019-01-14T03:15:17.650Z,97895.77
2019-01-14T03:17:47.484Z,97899.25
2019-01-14T03:20:17.285Z,97896.92
2019-01-14T03:22:46.715Z,97918.14
2019-01-14T03:25:16.444Z,97911.56
2019-01-14T03:27:45.894Z,97925.09
2019-01-14T03:30:17.498Z,97930.66
2019-01-14T03:32:46.933Z,97932.53
2019-01-14T03:35:16.522Z,97938.08
2019-01-14T03:37:46.026Z,97943.42
2019-01-14T03:40:16.346Z,97948.77
2019-01-14T03:42:45.750Z,97961.79
2019-01-14T03:45:15.268Z,97963.67
2019-01-14T03:47:44.803Z,97975.33
2019-01-14T03:50:16.883Z,97985.65
2019-01-14T03:52:46.640Z,97988.91
2019-01-14T03:55:16.107Z,97998.18
2019-01-14T03:57:45.868Z,98004.07
2019-01-14T04:00:16.824Z,97995.03
2019-01-14T04:02:48.278Z,98003.84
2019-01-14T04:05:17.694Z,98016.08
2019-01-14T04:07:47.136Z,98026.88
2019-01-14T04:10:17.916Z,98023.72
2019-01-14T04:12:48.972Z,98029.61
2019-01-14T04:15:19.083Z,98034.64
2019-01-14T04:17:48.529Z,98035.37
2019-01-14T04:20:18.808Z,98047.06
2019-01-14T04:22:49.111Z,98053.19
2019-01-14T04:25:18.566Z,98068.83
2019-01-14T04:27:48.316Z,98066.96
2019-01-14T04:30:20.514Z,98074.05
2019-01-14T04:32:50.501Z,98084.77
2019-01-14T04:35:20.289Z,98086.64
2019-01-14T04:37:49.720Z,98094.55
2019-01-14T04:40:19.450Z,98097.52
2019-01-14T04:42:49.241Z,98104.48
2019-01-14T04:45:18.977Z,98103.98
2019-01-14T04:47:48.405Z,98120.12
2019-01-14T04:50:20.194Z,98119.64
2019-01-14T04:52:49.623Z,98132.89
2019-01-14T04:55:19.156Z,98138.50
2019-01-14T04:57:48.658Z,98149.14
2019-01-14T05:00:22.801Z,98147.03
2019-01-14T05:02:52.241Z,98143.90
2019-01-14T05:05:21.680Z,98157.97
2019-01-14T05:07:51.179Z,98158.78
2019-01-14T05:10:21.297Z,98170.16
2019-01-14T05:12:50.977Z,98169.38
2019-01-14T05:15:20.424Z,98169.67
2019-01-14T05:17:49.850Z,98172.12
2019-01-14T05:20:21.541Z,98187.47
2019-01-14T05:22:51.036Z,98186.72
2019-01-14T05:25:20.495Z,98200.77
2019-01-14T05:27:51.546Z,98198.45
2019-01-14T05:30:21.164Z,98208.83
2019-01-14T05:32:50.604Z,98192.67
2019-01-14T05:35:20.051Z,98212.05
2019-01-14T05:37:49.733Z,98222.42
2019-01-14T05:40:21.526Z,98228.33
2019-01-14T05:42:50.978Z,98233.70
2019-01-14T05:45:20.417Z,98237.45
2019-01-14T05:47:50.198Z,98242.52
2019-01-14T05:50:19.646Z,98248.42
2019-01-14T05:52:49.082Z,98256.96
2019-01-14T05:55:18.795Z,98264.16
2019-01-14T05:57:48.264Z,98266.54
2019-01-14T06:00:31.047Z,98278.20
2019-01-14T06:03:02.106Z,98283.06
2019-01-14T06:05:31.564Z,98292.38
2019-01-14T06:08:00.995Z,98306.53
2019-01-14T06:10:30.441Z,98316.92
2019-01-14T06:13:00.199Z,98324.05
2019-01-14T06:15:29.807Z,98328.66
2019-01-14T06:17:59.242Z,98339.30
2019-01-14T06:20:30.321Z,98345.17
2019-01-14T06:22:59.753Z,98335.09
2019-01-14T06:25:29.277Z,98332.49
2019-01-14T06:27:58.761Z,98337.78
2019-01-14T06:30:30.221Z,98345.19
2019-01-14T06:32:59.929Z,98346.54
2019-01-14T06:35:29.548Z,98343.65
2019-01-14T06:37:59.292Z,98345.50
2019-01-14T06:40:29.026Z,98349.45
2019-01-14T06:42:58.822Z,98357.69
2019-01-14T06:45:28.283Z,98360.34
2019-01-14T06:47:57.722Z,98372.23
2019-01-14T06:50:27.171Z,98371.97
2019-01-14T06:52:56.634Z,98367.74
2019-01-14T06:55:26.092Z,98378.84
2019-01-14T06:57:55.564Z,98375.13
2019-01-14T07:00:27.078Z,98375.66
2019-01-14T07:02:56.536Z,98370.91
2019-01-14T07:05:26.321Z,98381.20
2019-01-14T07:07:59.742Z,98376.18
2019-01-14T07:10:28.091Z,98386.98
2019-01-14T07:12:57.526Z,98383.26
2019-01-14T07:15:26.998Z,98391.98
2019-01-14T07:17:56.533Z,98396.77
2019-01-14T07:20:26.424Z,98390.91
2019-01-14T07:22:55.875Z,98403.09
2019-01-14T07:25:25.328Z,98407.57
2019-01-14T07:27:54.763Z,98403.59
2019-01-14T07:30:24.298Z,98403.33
2019-01-14T07:32:53.735Z,98414.16
2019-01-14T07:35:23.986Z,98402.77
2019-01-14T07:37:53.429Z,98401.19
2019-01-14T07:40:22.962Z,98413.66
2019-01-14T07:42:52.702Z,98423.97
2019-01-14T07:45:22.223Z,98421.38
2019-01-14T07:47:51.675Z,98422.43
2019-01-14T07:50:21.137Z,98417.67
2019-01-14T07:52:50.935Z,98410.52
2019-01-14T07:55:20.655Z,98412.84
2019-01-14T07:57:50.169Z,98418.34
2019-01-14T08:00:21.873Z,98416.48
2019-01-14T08:02:51.390Z,98418.75
2019-01-14T08:05:20.923Z,98433.55
2019-01-14T08:07:50.362Z,98431.92
2019-01-14T08:10:19.799Z,98442.80
2019-01-14T08:12:49.254Z,98437.76
2019-01-14T08:15:20.343Z,98454.20
2019-01-14T08:17:51.485Z,98451.57
2019-01-14T08:20:20.945Z,98463.78
2019-01-14T08:22:50.399Z,98473.58
2019-01-14T08:25:20.316Z,98481.24
2019-01-14T08:27:49.804Z,98488.94
2019-01-14T08:30:20.997Z,98499.53
2019-01-14T08:32:50.483Z,98508.80
2019-01-14T08:35:20.741Z,98521.95
2019-01-14T08:37:52.451Z,98523.20
2019-01-14T08:40:21.891Z,98522.25
2019-01-14T08:42:51.360Z,98531.61
2019-01-14T08:45:21.127Z,98534.45
2019-01-14T08:47:50.598Z,98548.47
2019-01-14T08:50:20.103Z,98544.67
2019-01-14T08:52:49.923Z,98559.58
2019-01-14T08:55:19.441Z,98571.06
2019-01-14T08:57:54.427Z,98567.87
2019-01-14T09:00:21.309Z,98569.69
2019-01-14T09:02:50.777Z,98560.94
2019-01-14T09:05:20.229Z,98546.55
2019-01-14T09:07:49.697Z,98575.26
2019-01-14T09:10:21.920Z,98563.97
2019-01-14T09:12:51.605Z,98579.39
2019-01-14T09:15:21.138Z,98575.86
2019-01-14T09:17:50.918Z,98565.47
2019-01-14T09:20:21.904Z,98577.44
2019-01-14T09:22:52.095Z,98580.31
2019-01-14T09:25:21.542Z,98582.77
2019-01-14T09:27:51.060Z,98587.19
2019-01-14T09:30:22.396Z,98590.21
2019-01-14T09:32:52.238Z,98584.22
2019-01-14T09:35:21.684Z,98593.09
2019-01-14T09:37:53.023Z,98586.65
2019-01-14T09:40:23.307Z,98593.10
2019-01-14T09:42:52.771Z,98605.08
2019-01-14T09:45:22.261Z,98588.97
2019-01-14T09:47:51.790Z,98582.70
2019-01-14T09:50:21.329Z,98593.61
2019-01-14T09:52:51.355Z,98601.26
2019-01-14T09:55:20.870Z,98603.66
2019-01-14T09:57:50.634Z,98609.47
2019-01-14T10:00:20.055Z,98605.50
2019-01-14T10:02:49.541Z,98615.05
2019-01-14T10:05:19.401Z,98621.11
2019-01-14T10:07:48.846Z,98606.24
2019-01-14T10:10:18.956Z,98604.38
2019-01-14T10:12:48.770Z,98613.95
2019-01-14T10:15:20.567Z,98620.00
2019-01-14T10:17:51.657Z,98612.09
2019-01-14T10:20:21.095Z,98614.20
2019-01-14T10:22:50.616Z,98601.44
2019-01-14T10:25:20.114Z,98588.77
2019-01-14T10:27:49.996Z,98590.13
2019-01-14T10:30:19.818Z,98587.94
2019-01-14T10:32:49.449Z,98591.39
2019-01-14T10:35:18.903Z,98595.69
2019-01-14T10:37:48.372Z,98594.04
2019-01-14T10:40:18.091Z,98589.51
2019-01-14T10:42:47.858Z,98583.30
2019-01-14T10:45:20.006Z,98611.52
2019-01-14T10:47:49.481Z,98609.21
2019-01-14T10:50:19.295Z,98596.14
2019-01-14T10:52:48.917Z,98583.75
2019-01-14T10:55:18.641Z,98589.55
2019-01-14T10:57:48.584Z,98589.68
2019-01-14T11:00:21.040Z,98593.34
2019-01-14T11:02:50.870Z,98588.39
2019-01-14T11:05:26.236Z,98586.80
2019-01-14T11:07:55.773Z,98581.91
2019-01-14T11:10:25.220Z,98573.22
2019-01-14T11:12:54.677Z,98574.39
2019-01-14T11:15:24.407Z,98587.36
2019-01-14T11:17:53.914Z,98581.58
2019-01-14T11:20:26.429Z,98579.86
2019-01-14T11:22:56.203Z,98577.11
2019-01-14T11:25:25.664Z,98584.55
2019-01-14T11:27:55.316Z,98591.31
2019-01-14T11:30:28.236Z,98585.70
2019-01-14T11:32:57.712Z,98576.59
2019-01-14T11:35:27.232Z,98593.16
2019-01-14T11:37:56.688Z,98588.73
2019-01-14T11:40:29.065Z,98593.06
2019-01-14T11:42:58.846Z,98595.83
2019-01-14T11:45:28.562Z,98597.45
2019-01-14T11:47:58.253Z,98599.89
2019-01-14T11:50:27.942Z,98601.11
2019-01-14T11:52:57.381Z,98592.70
2019-01-14T11:55:26.865Z,98606.08
2019-01-14T11:57:56.337Z,98600.26
2019-01-14T12:00:26.654Z,98595.52
2019-01-14T12:02:56.112Z,98597.91
2019-01-14T12:05:25.626Z,98606.23
2019-01-14T12:07:55.091Z,98607.55
2019-01-14T12:10:24.668Z,98603.86
2019-01-14T12:12:54.402Z,98613.13
2019-01-14T12:15:27.012Z,98608.58
2019-01-14T12:17:56.832Z,98612.11
2019-01-14T12:20:26.352Z,98596.58
2019-01-14T12:22:56.170Z,98629.16
2019-01-14T12:25:25.624Z,98665.42
2019-01-14T12:27:55.128Z,98660.73
2019-01-14T12:30:33.306Z,98671.33
2019-01-14T12:33:02.773Z,98675.31
2019-01-14T12:35:32.227Z,98671.30
2019-01-14T12:38:01.741Z,98680.72
2019-01-14T12:40:31.606Z,98679.67
2019-01-14T12:43:01.057Z,98668.04
2019-01-14T12:45:30.943Z,98674.11
2019-01-14T12:48:00.420Z,98670.48
2019-01-14T12:50:29.935Z,98663.38
2019-01-14T12:52:59.746Z,98674.23
2019-01-14T12:55:29.265Z,98676.60
2019-01-14T12:57:58.715Z,98667.09
2019-01-14T13:00:29.696Z,98676.11
2019-01-14T13:02:59.136Z,98682.45
2019-01-14T13:05:29.937Z,98692.50
2019-01-14T13:07:59.499Z,98700.47
2019-01-14T13:10:29.018Z,98714.72
2019-01-14T13:12:58.542Z,98711.03
2019-01-14T13:15:28.656Z,98714.95
2019-01-14T13:17:58.108Z,98711.52
2019-01-14T13:20:28.106Z,98704.36
2019-01-14T13:22:57.569Z,98702.50
2019-01-14T13:25:27.178Z,98713.06
2019-01-14T13:27:56.624Z,98734.47
2019-01-14T13:30:28.153Z,98743.47
2019-01-14T13:32:59.098Z,98730.95
2019-01-14T13:35:28.572Z,98711.74
2019-01-14T13:37:58.328Z,98718.83
2019-01-14T13:40:28.166Z,98717.23
2019-01-14T13:42:57.627Z,98717.75
2019-01-14T13:45:27.297Z,98723.38
2019-01-14T13:47:56.747Z,98727.38
2019-01-14T13:50:26.704Z,98725.84
2019-01-14T13:52:56.146Z,98737.54
2019-01-14T13:55:25.745Z,98745.25
2019-01-14T13:57:59.731Z,98755.28
2019-01-14T14:00:26.733Z,98752.41
2019-01-14T14:02:56.178Z,98759.55
2019-01-14T14:05:25.631Z,98774.36
2019-01-14T14:07:55.072Z,98747.52
2019-01-14T14:10:26.977Z,98780.98
2019-01-14T14:12:56.424Z,98796.81
2019-01-14T14:15:26.052Z,98813.66
2019-01-14T14:17:56.643Z,98828.50
2019-01-14T14:20:26.244Z,98822.66
2019-01-14T14:22:55.678Z,98821.60
2019-01-14T14:25:25.131Z,98824.21
2019-01-14T14:27:55.003Z,98822.48
2019-01-14T14:30:27.399Z,98821.55
2019-01-14T14:32:56.890Z,98811.59
2019-01-14T14:35:26.364Z,98803.56
2019-01-14T14:38:00.954Z,98805.91
2019-01-14T14:40:27.776Z,98822.13
2019-01-14T14:42:57.209Z,98826.38
2019-01-14T14:45:26.680Z,98819.98
2019-01-14T14:47:56.123Z,98822.44
2019-01-14T14:50:25.594Z,98833.07
2019-01-14T14:52:55.035Z,98822.77
2019-01-14T14:55:24.499Z,98839.66
2019-01-14T14:57:54.019Z,98834.59
2019-01-14T15:00:23.816Z,98828.59
2019-01-14T15:02:53.253Z,98817.04
2019-01-14T15:05:22.965Z,98825.80
2019-01-14T15:07:52.832Z,98822.92
2019-01-14T15:10:22.571Z,98830.86
2019-01-14T15:12:52.104Z,98840.11
2019-01-14T15:15:22.528Z,98843.83
2019-01-14T15:17:51.973Z,98843.59
2019-01-14T15:20:22.671Z,98848.39
2019-01-14T15:22:52.105Z,98850.53
2019-01-14T15:25:21.549Z,98862.66
2019-01-14T15:27:50.993Z,98866.64
2019-01-14T15:30:35.355Z,98878.78
2019-01-14T15:33:14.745Z,98885.98
2019-01-14T15:35:51.752Z,98888.83
2019-01-14T15:38:29.384Z,98893.50
2019-01-14T15:40:59.041Z,98908.48
2019-01-14T15:43:33.250Z,98918.39
2019-01-14T15:46:04.333Z,98916.45
2019-01-14T15:48:38.532Z,98914.03
2019-01-14T15:51:08.001Z,98934.80
2019-01-14T15:53:37.446Z,98944.52
2019-01-14T15:56:06.919Z,98945.19
2019-01-14T15:58:36.365Z,98962.25
2019-01-14T16:01:05.856Z,98970.66
2019-01-14T16:03:35.627Z,98979.55
2019-01-14T16:06:05.458Z,98983.42
2019-01-14T16:08:36.899Z,98990.14
2019-01-14T16:11:06.387Z,98998.27
2019-01-14T16:13:35.871Z,99001.55
2019-01-14T16:16:05.777Z,99008.84
2019-01-14T16:18:35.284Z,99017.35
2019-01-14T16:21:04.796Z,99020.13
2019-01-14T16:23:34.244Z,99036.05
2019-01-14T16:26:04.182Z,99039.16
2019-01-14T16:28:33.751Z,99042.17
2019-01-14T16:31:03.219Z,99046.31
2019-01-14T16:33:32.672Z,99053.12
2019-01-14T16:36:02.125Z,99054.73
2019-01-14T16:38:31.592Z,99052.59
2019-01-14T16:41:01.050Z,99060.57
2019-01-14T16:43:30.642Z,99073.74
2019-01-14T16:46:00.117Z,99076.56
2019-01-14T16:48:29.753Z,99082.80
2019-01-14T16:50:59.271Z,99085.95
2019-01-14T16:53:28.793Z,99091.93
2019-01-14T16:55:58.605Z,99101.19
2019-01-14T16:58:28.064Z,99099.88
2019-01-14T17:00:57.667Z,99111.41
2019-01-14T17:03:27.112Z,99107.77
2019-01-14T17:05:56.575Z,99123.58
2019-01-14T17:08:26.019Z,99132.75
2019-01-14T17:10:56.475Z,99138.81
2019-01-14T17:13:27.326Z,99136.70
2019-01-14T17:15:56.787Z,99147.42
2019-01-14T17:18:26.261Z,99150.71
2019-01-14T17:20:55.700Z,99159.48
2019-01-14T17:23:25.219Z,99164.88
2019-01-14T17:25:54.929Z,99172.20
2019-01-14T17:28:24.429Z,99173.34
2019-01-14T17:30:53.988Z,99180.45
2019-01-14T17:33:23.784Z,99182.31
2019-01-14T17:35:53.246Z,99190.52
2019-01-14T17:38:22.727Z,99195.48
2019-01-14T17:40:52.506Z,99191.16
2019-01-14T17:43:21.950Z,99194.76
2019-01-14T17:45:51.458Z,99200.08
2019-01-14T17:48:20.933Z,99202.77
2019-01-14T17:50:50.402Z,99209.30
2019-01-14T17:53:20.133Z,99205.64
2019-01-14T17:55:49.603Z,99211.13
2019-01-14T17:58:19.377Z,99222.19
2019-01-14T18:00:48.860Z,99225.05
2019-01-14T18:03:18.412Z,99223.10
2019-01-14T18:05:47.892Z,99230.67
2019-01-14T18:08:17.343Z,99236.22
2019-01-14T18:10:47.094Z,99239.37
2019-01-14T18:13:16.566Z,99237.78
2019-01-14T18:15:46.035Z,99242.80
2019-01-14T18:18:15.532Z,99252.06
2019-01-14T18:20:45.100Z,99259.23
2019-01-14T18:23:14.661Z,99260.91
2019-01-14T18:25:44.124Z,99257.17
2019-01-14T18:28:13.669Z,99261.91
2019-01-14T18:30:43.140Z,99268.17
2019-01-14T18:33:12.616Z,99281.77
2019-01-14T18:35:42.086Z,99275.27
2019-01-14T18:38:11.546Z,99283.97
2019-01-14T18:40:47.065Z,99285.52
2019-01-14T18:43:12.142Z,99282.42
2019-01-14T18:45:41.603Z,99292.54
2019-01-14T18:48:11.059Z,99307.04
2019-01-14T18:50:40.547Z,99313.38
2019-01-14T18:53:10.178Z,99310.47
2019-01-14T18:55:39.638Z,99313.84
2019-01-14T18:58:09.098Z,99324.37
2019-01-14T19:00:38.576Z,99328.27
2019-01-14T19:03:08.009Z,99327.52
2019-01-14T19:05:37.469Z,99333.31
2019-01-14T19:08:06.920Z,99339.64
2019-01-14T19:10:36.424Z,99339.01
2019-01-14T19:13:05.869Z,99347.95
2019-01-14T19:15:35.424Z,99341.89
2019-01-14T19:18:05.046Z,99350.86
2019-01-14T19:20:34.527Z,99356.25
2019-01-14T19:23:03.994Z,99365.00
2019-01-14T19:25:33.532Z,99367.91
2019-01-14T19:28:03.002Z,99369.59
2019-01-14T19:30:32.924Z,99372.92
2019-01-14T19:33:02.450Z,99371.89
2019-01-14T19:35:31.937Z,99372.83
2019-01-14T19:38:03.020Z,99377.06
2019-01-14T19:40:33.990Z,99387.30
2019-01-14T19:43:06.595Z,99394.45
2019-01-14T19:45:36.035Z,99391.61
2019-01-14T19:48:06.161Z,99400.82
2019-01-14T19:50:36.048Z,99404.55
2019-01-14T19:53:05.587Z,99409.97
2019-01-14T19:55:35.109Z,99410.55
2019-01-14T19:58:04.683Z,99411.59
2019-01-14T20:00:34.161Z,99411.56
2019-01-14T20:03:03.616Z,99412.88
2019-01-14T20:05:33.187Z,99421.11
2019-01-14T20:08:03.622Z,99418.84
2019-01-14T20:10:33.162Z,99427.48
2019-01-14T20:13:02.623Z,99426.75
2019-01-14T20:15:32.071Z,99424.39
2019-01-14T20:18:01.526Z,99426.17
2019-01-14T20:20:31.336Z,99436.06
2019-01-14T20:23:00.892Z,99437.95
2019-01-14T20:25:30.480Z,99432.97
2019-01-14T20:27:59.977Z,99435.78
2019-01-14T20:30:30.088Z,99445.89
2019-01-14T20:32:59.634Z,99448.34
2019-01-14T20:35:29.220Z,99447.44
2019-01-14T20:37:58.748Z,99446.19
2019-01-14T20:40:28.190Z,99454.14
2019-01-14T20:42:57.730Z,99454.78
2019-01-14T20:45:27.181Z,99454.05
2019-01-14T20:47:56.657Z,99466.70
2019-01-14T20:50:26.450Z,99470.66
2019-01-14T20:52:55.922Z,99473.41
2019-01-14T20:55:25.359Z,99478.46
2019-01-14T20:57:54.897Z,99480.63
2019-01-14T21:00:24.872Z,99482.63
2019-01-14T21:02:54.779Z,99482.20
2019-01-14T21:05:24.500Z,99482.78
2019-01-14T21:07:53.970Z,99485.69
2019-01-14T21:10:23.528Z,99484.95
2019-01-14T21:12:52.981Z,99490.95
2019-01-14T21:15:23.031Z,99490.61
2019-01-14T21:17:52.586Z,99491.44
2019-01-14T21:20:23.423Z,99498.52
2019-01-14T21:22:53.158Z,99487.42
2019-01-14T21:25:22.902Z,99496.71
2019-01-14T21:27:52.713Z,99495.55
2019-01-14T21:30:24.469Z,99498.41
2019-01-14T21:32:55.137Z,99490.44
2019-01-14T21:35:24.742Z,99491.17
2019-01-14T21:37:54.206Z,99494.27
2019-01-14T21:40:24.242Z,99490.84
2019-01-14T21:42:53.702Z,99501.96
2019-01-14T21:45:23.177Z,99497.61
2019-01-14T21:47:52.980Z,99499.63
2019-01-14T21:50:22.390Z,99501.73
2019-01-14T21:52:52.373Z,99493.84
2019-01-14T21:55:22.750Z,99504.11
2019-01-14T21:57:52.208Z,99505.60
2019-01-14T22:00:23.053Z,99501.95
2019-01-14T22:02:52.572Z,99506.13
2019-01-14T22:05:22.080Z,99499.59
2019-01-14T22:07:51.780Z,99502.34
2019-01-14T22:10:23.160Z,99511.34
2019-01-14T22:12:52.996Z,99505.55
2019-01-14T22:15:22.422Z,99503.19
2019-01-14T22:17:51.872Z,99512.72
2019-01-14T22:20:23.458Z,99500.91
2019-01-14T22:22:52.863Z,99510.81
2019-01-14T22:25:22.302Z,99509.28
2019-01-14T22:27:51.755Z,99503.81
2019-01-14T22:30:24.205Z,99499.05
2019-01-14T22:32:53.665Z,99507.70
2019-01-14T22:35:23.083Z,99510.80
2019-01-14T22:37:52.538Z,99514.59
2019-01-14T22:40:21.980Z,99516.89
2019-01-14T22:42:52.795Z,99513.63
2019-01-14T22:45:22.507Z,99520.27
2019-01-14T22:47:53.730Z,99515.94
2019-01-14T22:50:23.105Z,99510.08
2019-01-14T22:52:52.552Z,99515.69
2019-01-14T22:55:22.000Z,99520.69
2019-01-14T22:57:51.454Z,99524.42
2019-01-14T23:00:58.840Z,99512.61
2019-01-14T23:03:28.297Z,99524.48
2019-01-14T23:05:58.073Z,99512.56
2019-01-14T23:08:27.884Z,99521.02
2019-01-14T23:10:57.315Z,99512.14
2019-01-14T23:13:27.105Z,99509.29
2019-01-14T23:15:58.165Z,99521.44
2019-01-14T23:18:27.700Z,99516.95
2019-01-14T23:20:57.139Z,99520.80
2019-01-14T23:23:26.651Z,99525.06
2019-01-14T23:25:56.451Z,99512.94
2019-01-14T23:28:25.900Z,99515.63
2019-01-14T23:30:55.518Z,99513.09
2019-01-14T23:33:24.979Z,99506.23
2019-01-14T23:35:54.407Z,99519.53
2019-01-14T23:38:24.192Z,99518.09
2019-01-14T23:40:59.824Z,99514.14
2019-01-14T23:43:29.273Z,99515.67
2019-01-14T23:45:58.707Z,99516.99
2019-01-14T23:48:28.458Z,99504.38
2019-01-14T23:50:57.914Z,99490.54
2019-01-14T23:53:27.838Z,99488.95
2019-01-14T23:55:57.278Z,99481.55
2019-01-14T23:58:27.101Z,99491.02
